• Join FlightAware (Why Join?)
  • Login
  • US Flag 
04:44AM EDT


 

Airport Tracker/Info


-or-


 

Live Flight TrackerFlight Track Log ✈ CTL18 ✈ 07-May-2013 ✈ KMBS - KYIP

Flight Track Log - Related Links

Times and Time Zones

All times are in EDT time to prevent confusion due to time zone crossing. See the CTL18 flight status page for this flight to view local times or setup timezone preferences in your user account.

Time Position Orientation Groundspeed Altitude Reporting Facility
EDT Latitude Longitude Course Direction KTS MPH feet Rate Location/Type
07:54PM 43.3619 -84.0057 160° South  Level Estimated
07:55PM 43.3366 -83.9838 148° Southeast  Level FlightAware Approximate
07:56PM 43.3080 -83.9718 160° South  Level Estimated
07:57PM 43.2807 -83.9553 156° South  Level FlightAware Approximate
07:58PM 43.2533 -83.9388 156° South  Level FlightAware Approximate
07:59PM 43.2247 -83.9271 163° South  Level Estimated
08:00PM 43.1965 -83.9134 161° South  Level FlightAware Approximate
08:01PM 43.1683 -83.8997 161° South  Level FlightAware Approximate
08:01PM 42.9925 -83.8022 160° South 161 185 5,000  Level Cleveland Center
08:02PM 43.1401 -83.8861 161° South  Level FlightAware Approximate
08:02PM 42.9658 -83.7922 165° South 159 183 5,000  Level Cleveland Center
08:03PM 43.1115 -83.8746 160° South  Level Estimated
08:03PM 42.9247 -83.7731 161° South 160 184 5,000  Level Cleveland Center
08:04PM 43.0835 -83.8603 160° South  Level FlightAware Approximate
08:04PM 42.8833 -83.7539 161° South 159 183 5,100  Level Cleveland Center
08:05PM 43.0555 -83.8461 160° South  Level FlightAware Approximate
08:05PM 42.8400 -83.7433 170° South 161 185 5,000  Level Cleveland Center
08:06PM 43.0275 -83.8318 160° South  Level FlightAware Approximate
08:06PM 42.7903 -83.7294 168° South 158 182 5,000  Level Cleveland Center
08:07PM 42.9995 -83.8176 160° South  Level FlightAware Approximate
08:07PM 42.7469 -83.7158 167° South 156 180 5,000  Level Cleveland Center
08:08PM 42.7036 -83.6997 165° South 156 180 5,000  Level Cleveland Center
08:09PM 42.6644 -83.6781 158° South 156 180 5,100  Climbing Cleveland Center
08:10PM 42.6214 -83.6561 159° South 156 180 5,000 -180 Descending Cleveland Center
08:11PM 42.5800 -83.6400 164° South 165 190 4,800 -300 Descending Cleveland Center
08:12PM 42.5369 -83.6181 159° South 173 199 4,500 -420 Descending Cleveland Center
08:13PM 42.4892 -83.6044 168° South 176 203 4,000 -780 Descending Cleveland Center
08:14PM 42.4397 -83.5881 166° South 189 217 3,000 -660 Descending Cleveland Center
08:15PM 42.3942 -83.5747 168° South 169 194 2,700 -300 Descending Cleveland Center
08:16PM 42.3467 -83.5528 161° South 164 189 2,400 -300 Descending Cleveland Center
08:17PM 42.3033 -83.5367 165° South 161 185 2,100 -480 Descending Cleveland Center
08:18PM 42.2667 -83.5125 154° Southeast 140 161 1,500 -600 Descending Cleveland Center
08:20PM 42.2333 -83.5167 160° South  Level FlightAware Approximate
08:27PM 42.2393 -83.5310 160° South  Level Estimated
08:28PM 42.2393 -83.5310 160° South  Level Estimated